Time;durP1;ratioP1;P1;durP2;ratioP2;P2;SDS_P1;SDS_P2;PMS_P1;PMS_P2;Temp;Humidity;BMP_temperature;BMP_pressure;BME280_temperature;BME280_humidity;BME280_pressure;Samples;Min_cycle;Max_cycle;Signal;HPM_P1;HPM_P2
2023/01/12 05:32:03;;;;;;;45.00;23.83;;;;;;;;;;5006293;23;20052;-64
2023/01/12 05:34:29;;;;;;;45.45;25.42;;;;;;;;;;4917029;29;20028;-65
2023/01/12 05:36:55;;;;;;;43.15;23.83;;;;;;;;;;4917248;29;20395;-64
2023/01/12 05:39:21;;;;;;;43.58;24.00;;;;;;;;;;4917010;29;20056;-64
2023/01/12 05:44:33;;;;;;;46.25;25.52;;;;;;;;;;4898061;29;20100;-64
2023/01/12 05:46:59;;;;;;;72.35;37.03;;;;;;;;;;4897888;29;20029;-70
2023/01/12 05:49:25;;;;;;;69.78;35.97;;;;;;;;;;4897720;29;20032;-65
2023/01/12 05:51:51;;;;;;;54.15;30.63;;;;;;;;;;4898037;29;20048;-64
2023/01/12 05:54:17;;;;;;;48.97;26.05;;;;;;;;;;4897794;29;20480;-64
2023/01/12 05:56:43;;;;;;;52.47;26.05;;;;;;;;;;4898144;29;20115;-65
2023/01/12 05:59:10;;;;;;;56.03;28.48;;;;;;;;;;4897685;29;20095;-64
2023/01/12 06:01:36;;;;;;;49.55;26.63;;;;;;;;;;4897603;29;20032;-65
2023/01/12 06:04:02;;;;;;;49.35;25.75;;;;;;;;;;4895671;29;20084;-64
2023/01/12 06:06:30;;;;;;;44.05;23.90;;;;;;;;;;4897638;29;20039;-64
2023/01/12 06:08:56;;;;;;;44.80;25.17;;;;;;;;;;4897759;29;20408;-64
2023/01/12 06:14:08;;;;;;;45.55;25.10;;;;;;;;;;4898959;29;20088;-69
2023/01/12 06:16:36;;;;;;;45.20;24.95;;;;;;;;;;4915161;29;20051;-65
2023/01/12 06:19:02;;;;;;;45.90;24.77;;;;;;;;;;4912512;29;20016;-64
2023/01/12 06:21:28;;;;;;;48.13;27.13;;;;;;;;;;4914712;29;20083;-65
2023/01/12 06:23:54;;;;;;;44.00;25.52;;;;;;;;;;4914789;29;20024;-65
2023/01/12 06:26:20;;;;;;;41.72;23.58;;;;;;;;;;4915189;29;20032;-64
2023/01/12 06:28:46;;;;;;;67.78;35.53;;;;;;;;;;4914496;29;20032;-64
2023/01/12 06:31:13;;;;;;;52.50;29.27;;;;;;;;;;4914692;29;20055;-64
2023/01/12 06:33:39;;;;;;;61.97;32.17;;;;;;;;;;4912898;29;20036;-64
2023/01/12 06:36:05;;;;;;;40.25;23.17;;;;;;;;;;4914381;29;20385;-64
2023/01/12 06:38:32;;;;;;;40.00;23.13;;;;;;;;;;4914633;29;20024;-64
2023/01/12 06:41:02;;;;;;;43.67;24.73;;;;;;;;;;4914233;29;20027;-64
2023/01/12 06:43:28;;;;;;;48.22;26.95;;;;;;;;;;4915944;29;20035;-65
2023/01/12 06:45:54;;;;;;;45.42;25.02;;;;;;;;;;4915726;29;20098;-64
2023/01/12 06:48:24;;;;;;;42.78;25.05;;;;;;;;;;4915283;29;20051;-65
2023/01/12 06:50:50;;;;;;;43.33;23.60;;;;;;;;;;4915850;29;20484;-64
2023/01/12 06:53:16;;;;;;;44.60;23.13;;;;;;;;;;4915720;29;20075;-67
2023/01/12 06:55:48;;;;;;;41.78;23.20;;;;;;;;;;4915694;29;20028;-67
2023/01/12 06:58:14;;;;;;;57.33;32.72;;;;;;;;;;4915501;29;20043;-72
2023/01/12 07:00:40;;;;;;;51.58;28.90;;;;;;;;;;4915379;29;20036;-65
2023/01/12 07:03:06;;;;;;;40.35;22.92;;;;;;;;;;4915443;29;20107;-65
2023/01/12 07:05:32;;;;;;;40.42;22.52;;;;;;;;;;4915349;29;20111;-65
2023/01/12 07:07:59;;;;;;;42.45;23.58;;;;;;;;;;4915496;29;20128;-66
2023/01/12 07:10:25;;;;;;;43.80;23.98;;;;;;;;;;4915373;29;20039;-65
2023/01/12 07:12:51;;;;;;;41.05;22.83;;;;;;;;;;4913612;29;20436;-63
2023/01/12 07:15:17;;;;;;;41.38;22.88;;;;;;;;;;4915348;29;20024;-63
2023/01/12 07:17:43;;;;;;;42.28;22.02;;;;;;;;;;4908285;29;20381;-64
2023/01/12 07:20:09;;;;;;;39.25;22.27;;;;;;;;;;4910476;29;20433;-76
2023/01/12 07:22:35;;;;;;;41.88;25.02;;;;;;;;;;4914643;29;20028;-65
2023/01/12 07:25:01;;;;;;;40.78;23.98;;;;;;;;;;4913643;29;20040;-64
2023/01/12 07:27:27;;;;;;;44.63;24.38;;;;;;;;;;4915274;29;20036;-64
2023/01/12 07:29:53;;;;;;;45.10;23.67;;;;;;;;;;4914613;29;20511;-65
2023/01/12 07:32:19;;;;;;;42.00;22.92;;;;;;;;;;4948756;29;20066;-65
2023/01/12 07:34:45;;;;;;;45.38;25.23;;;;;;;;;;4953141;29;20031;-64
2023/01/12 07:37:11;;;;;;;52.05;26.48;;;;;;;;;;4946628;29;20034;-65
2023/01/12 07:39:37;;;;;;;44.22;23.60;;;;;;;;;;4953212;29;20533;-65
2023/01/12 07:44:48;;;;;;;46.38;22.63;;;;;;;;;;4952991;29;20109;-64
2023/01/12 07:47:14;;;;;;;40.30;22.08;;;;;;;;;;4944534;28;20480;-67
2023/01/12 07:49:40;;;;;;;41.55;24.38;;;;;;;;;;4948086;29;20043;-70
2023/01/12 07:52:06;;;;;;;40.97;22.80;;;;;;;;;;4957067;29;20079;-69
2023/01/12 07:54:34;;;;;;;42.42;22.65;;;;;;;;;;4955578;29;20034;-67
2023/01/12 07:57:00;;;;;;;38.08;22.00;;;;;;;;;;4956942;29;20033;-64
2023/01/12 07:59:27;;;;;;;46.55;23.77;;;;;;;;;;4956127;29;20387;-71
2023/01/12 08:01:55;;;;;;;44.97;24.27;;;;;;;;;;4956929;29;20087;-66
2023/01/12 08:04:22;;;;;;;44.63;25.55;;;;;;;;;;4956295;29;20035;-64
2023/01/12 08:06:48;;;;;;;47.42;24.20;;;;;;;;;;4954236;28;20031;-64
2023/01/12 08:09:14;;;;;;;45.58;27.35;;;;;;;;;;4943751;29;20036;-72
2023/01/12 08:11:41;;;;;;;49.45;27.98;;;;;;;;;;4947135;29;20430;-71
2023/01/12 08:14:07;;;;;;;49.33;27.17;;;;;;;;;;4955205;29;20046;-65
2023/01/12 08:16:39;;;;;;;54.53;29.58;;;;;;;;;;4955441;29;20018;-64
2023/01/12 08:19:05;;;;;;;;;;;;;;;;;;4953872;29;20360;-66
2023/01/12 08:21:40;;;;;;;48.28;27.13;;;;;;;;;;4949047;29;19993;-66
2023/01/12 08:24:08;;;;;;;50.17;27.60;;;;;;;;;;4944705;29;20036;-65
2023/01/12 08:26:36;;;;;;;53.33;29.70;;;;;;;;;;4945513;29;20026;-71
2023/01/12 08:29:06;;;;;;;60.50;33.13;;;;;;;;;;4946057;29;20039;-65
2023/01/12 08:31:32;;;;;;;53.35;31.58;;;;;;;;;;4944769;29;20097;-67
2023/01/12 08:33:58;;;;;;;62.67;32.42;;;;;;;;;;4944519;29;20066;-64
2023/01/12 08:36:25;;;;;;;60.53;34.55;;;;;;;;;;4941624;29;20082;-69
2023/01/12 08:38:51;;;;;;;54.38;31.05;;;;;;;;;;4936576;29;20032;-72
2023/01/12 08:41:33;;;;;;;57.70;31.05;;;;;;;;;;4937960;29;20023;-72
2023/01/12 08:44:03;;;;;;;51.42;29.15;;;;;;;;;;4924441;29;20035;-72
2023/01/12 08:46:50;;;;;;;49.10;28.60;;;;;;;;;;4953739;29;20106;-70
2023/01/12 08:49:17;;;;;;;46.65;26.65;;;;;;;;;;4949289;29;20078;-71
2023/01/12 08:51:43;;;;;;;44.78;26.08;;;;;;;;;;4953779;29;20029;-74
2023/01/12 08:54:10;;;;;;;42.50;23.70;;;;;;;;;;4954226;29;20039;-73
2023/01/12 08:56:36;;;;;;;42.47;24.65;;;;;;;;;;4951183;29;20019;-72
2023/01/12 08:59:02;;;;;;;44.80;25.08;;;;;;;;;;4948219;28;20367;-73
2023/01/12 09:01:29;;;;;;;41.35;24.02;;;;;;;;;;4944168;29;20055;-71
2023/01/12 09:03:58;;;;;;;45.95;21.98;;;;;;;;;;4943000;29;20035;-68
2023/01/12 09:06:25;;;;;;;39.55;21.15;;;;;;;;;;4950957;29;20055;-70
2023/01/12 09:08:58;;;;;;;36.67;20.95;;;;;;;;;;4944520;29;20123;-66
2023/01/12 09:11:25;;;;;;;35.42;21.02;;;;;;;;;;4935666;29;20039;-74
2023/01/12 09:13:51;;;;;;;37.22;19.65;;;;;;;;;;4935474;29;20098;-67
2023/01/12 09:16:17;;;;;;;35.28;19.63;;;;;;;;;;4939914;29;20583;-74
2023/01/12 09:18:44;;;;;;;39.85;20.27;;;;;;;;;;4944913;29;20031;-73
2023/01/12 09:21:13;;;;;;;37.95;19.42;;;;;;;;;;4944185;29;20038;-72
2023/01/12 09:23:39;;;;;;;39.55;20.15;;;;;;;;;;4943181;29;20320;-72
2023/01/12 09:26:07;;;;;;;32.65;18.77;;;;;;;;;;4950952;29;20062;-72
2023/01/12 09:28:33;;;;;;;33.50;19.25;;;;;;;;;;4953221;29;20102;-73
2023/01/12 09:31:06;;;;;;;37.25;19.30;;;;;;;;;;4953611;29;20395;-75
2023/01/12 09:33:32;;;;;;;34.95;20.25;;;;;;;;;;4954258;29;20059;-64
2023/01/12 09:36:06;;;;;;;33.22;18.75;;;;;;;;;;4936478;29;20063;-71
2023/01/12 09:38:35;;;;;;;29.00;16.33;;;;;;;;;;4954608;29;20031;-70
2023/01/12 09:41:02;;;;;;;32.10;17.40;;;;;;;;;;4954250;29;20026;-71
2023/01/12 09:49:27;;;;;;;36.55;19.58;;;;;;;;;;4893750;29;20116;-85
2023/01/12 09:51:58;;;;;;;46.60;24.33;;;;;;;;;;4894394;29;20041;-73
2023/01/12 09:54:24;;;;;;;38.60;21.38;;;;;;;;;;4895198;29;20056;-82
2023/01/12 09:57:02;;;;;;;38.90;21.02;;;;;;;;;;4888261;29;20033;-79
2023/01/12 09:59:39;;;;;;;39.70;20.17;;;;;;;;;;4884826;29;20036;-79
2023/01/12 10:02:09;;;;;;;62.17;29.73;;;;;;;;;;4893256;29;20040;-79
2023/01/12 10:04:36;;;;;;;65.30;32.05;;;;;;;;;;4892924;29;20072;-84
2023/01/12 10:07:02;;;;;;;55.05;27.40;;;;;;;;;;4893622;29;20025;-83
2023/01/12 10:09:28;;;;;;;50.35;26.95;;;;;;;;;;4892542;29;20051;-81
2023/01/12 10:12:04;;;;;;;47.33;24.30;;;;;;;;;;4893064;29;20044;-78
2023/01/12 10:14:30;;;;;;;41.75;23.15;;;;;;;;;;4885150;29;20032;-72
2023/01/12 10:16:59;;;;;;;41.08;21.00;;;;;;;;;;4910571;29;20036;-84
2023/01/12 10:19:25;;;;;;;35.97;20.10;;;;;;;;;;4931344;29;20028;-68
2023/01/12 10:21:52;;;;;;;39.85;22.10;;;;;;;;;;4934709;29;20111;-65
2023/01/12 10:24:21;;;;;;;38.03;21.60;;;;;;;;;;4948867;29;20043;-76
2023/01/12 10:26:52;;;;;;;43.10;23.38;;;;;;;;;;4945946;28;20024;-65
2023/01/12 10:29:19;;;;;;;43.67;22.27;;;;;;;;;;4933463;29;20063;-65
2023/01/12 10:31:45;;;;;;;43.28;21.98;;;;;;;;;;4935147;29;20381;-65
2023/01/12 10:34:12;;;;;;;36.83;22.08;;;;;;;;;;4949199;29;20086;-69
2023/01/12 10:36:43;;;;;;;44.03;21.88;;;;;;;;;;4933548;29;20023;-68
2023/01/12 10:39:24;;;;;;;39.90;21.40;;;;;;;;;;4948417;29;20039;-65
2023/01/12 10:43:17;;;;;;;40.85;24.42;;;;;;;;;;4940223;29;20118;-68
2023/01/12 10:45:12;;;;;;;46.28;25.50;;;;;;;;;;4951635;29;20497;-74
2023/01/12 10:47:39;;;;;;;53.33;27.80;;;;;;;;;;4929683;29;20031;-78
2023/01/12 10:50:19;;;;;;;51.47;27.35;;;;;;;;;;4943804;29;20024;-64
2023/01/12 10:52:46;;;;;;;49.38;29.55;;;;;;;;;;4933600;29;20041;-64
2023/01/12 10:55:19;;;;;;;56.28;30.90;;;;;;;;;;4946181;29;20039;-66
2023/01/12 10:57:46;;;;;;;59.08;31.58;;;;;;;;;;4951141;29;20031;-65
2023/01/12 11:00:23;;;;;;;57.10;31.85;;;;;;;;;;4950930;29;20039;-67
2023/01/12 11:02:49;;;;;;;61.60;33.20;;;;;;;;;;4950772;29;20027;-66
2023/01/12 11:05:38;;;;;;;56.08;30.63;;;;;;;;;;4942486;29;20098;-67
2023/01/12 11:08:24;;;;;;;48.22;27.80;;;;;;;;;;4944086;29;20122;-65
2023/01/12 11:10:50;;;;;;;48.15;26.98;;;;;;;;;;4854257;29;20034;-66
2023/01/12 11:13:24;;;;;;;47.42;24.95;;;;;;;;;;4853947;29;20414;-65
2023/01/12 11:15:56;;;;;;;46.88;24.58;;;;;;;;;;4854019;29;20158;-64
2023/01/12 11:18:40;;;;;;;44.80;25.15;;;;;;;;;;4854573;29;20061;-64
2023/01/12 11:21:12;;;;;;;47.42;24.75;;;;;;;;;;4854845;29;20128;-64
2023/01/12 11:23:56;;;;;;;32.78;18.15;;;;;;;;;;4855019;29;20033;-68
2023/01/12 11:26:38;;;;;;;39.15;21.88;;;;;;;;;;4855434;29;20469;-70
2023/01/12 11:29:25;;;;;;;39.38;21.88;;;;;;;;;;4855033;29;20215;-75
2023/01/12 11:31:54;;;;;;;39.47;21.85;;;;;;;;;;4853692;29;20144;-66
2023/01/12 11:34:27;;;;;;;41.22;21.88;;;;;;;;;;4854934;29;20399;-69
2023/01/12 11:36:55;;;;;;;39.17;21.13;;;;;;;;;;4854481;29;20066;-71
2023/01/12 11:39:25;;;;;;;37.35;21.83;;;;;;;;;;4856343;29;20513;-75
2023/01/12 11:44:41;;;;;;;45.05;23.63;;;;;;;;;;4856455;29;20160;-75
2023/01/12 11:47:10;;;;;;;37.83;21.73;;;;;;;;;;4859454;29;20060;-71
2023/01/12 11:49:36;;;;;;;39.83;21.02;;;;;;;;;;4914807;29;20492;-75
2023/01/12 11:52:02;;;;;;;38.05;20.38;;;;;;;;;;4913498;29;20040;-74
2023/01/12 11:54:30;;;;;;;34.25;18.02;;;;;;;;;;4912918;29;20033;-67
2023/01/12 11:57:01;;;;;;;34.08;19.48;;;;;;;;;;4913362;29;20071;-67
2023/01/12 11:59:46;;;;;;;39.55;18.75;;;;;;;;;;4913513;29;20036;-74
2023/01/12 12:02:27;;;;;;;31.13;17.67;;;;;;;;;;4914856;29;20500;-76
2023/01/12 12:05:14;;;;;;;33.05;17.92;;;;;;;;;;4911696;29;20531;-73
2023/01/12 12:07:47;;;;;;;33.83;18.60;;;;;;;;;;4911476;29;20039;-70
2023/01/12 12:10:24;;;;;;;38.42;19.77;;;;;;;;;;4913392;29;20039;-66
2023/01/12 12:12:50;;;;;;;34.97;19.90;;;;;;;;;;4911546;29;20493;-65
2023/01/12 12:15:27;;;;;;;39.08;22.40;;;;;;;;;;4912446;29;20647;-70
2023/01/12 12:18:05;;;;;;;47.35;23.48;;;;;;;;;;4911013;29;20033;-67
2023/01/12 12:20:37;;;;;;;45.45;23.98;;;;;;;;;;4905202;29;20072;-64
2023/01/12 12:23:03;;;;;;;41.47;23.20;;;;;;;;;;4909540;29;20029;-71
2023/01/12 12:25:53;;;;;;;40.65;21.13;;;;;;;;;;4902100;29;20029;-76
2023/01/12 12:28:22;;;;;;;39.22;21.50;;;;;;;;;;4903557;29;20056;-68
2023/01/12 12:30:52;;;;;;;44.50;23.00;;;;;;;;;;4900590;29;20044;-73
2023/01/12 12:33:37;;;;;;;41.72;22.50;;;;;;;;;;4933364;29;20039;-72
2023/01/12 12:36:14;;;;;;;40.78;22.65;;;;;;;;;;4936625;29;20115;-72
2023/01/12 12:38:58;;;;;;;40.65;21.80;;;;;;;;;;4936705;29;20036;-72
2023/01/12 12:47:46;;;;;;;31.15;16.98;;;;;;;;;;4955328;29;20102;-71
2023/01/12 12:50:21;;;;;;;31.95;17.15;;;;;;;;;;4954937;29;20035;-71
2023/01/12 12:53:01;;;;;;;30.77;16.75;;;;;;;;;;4955967;29;20034;-74
2023/01/12 12:55:27;;;;;;;28.42;16.50;;;;;;;;;;4944565;29;20031;-73
2023/01/12 12:58:17;;;;;;;33.03;17.95;;;;;;;;;;4958171;29;20055;-69
2023/01/12 13:00:45;;;;;;;32.03;17.67;;;;;;;;;;4889495;29;20049;-69
2023/01/12 13:03:31;;;;;;;31.75;18.55;;;;;;;;;;4888052;29;20098;-70
2023/01/12 13:06:16;;;;;;;31.23;18.63;;;;;;;;;;4886946;29;20448;-68
2023/01/12 13:08:43;;;;;;;36.40;19.05;;;;;;;;;;4879691;29;20646;-72
2023/01/12 13:11:10;;;;;;;38.78;21.20;;;;;;;;;;4861847;29;20045;-70
2023/01/12 13:13:37;;;;;;;39.38;19.92;;;;;;;;;;4869137;29;20502;-71
2023/01/12 13:16:15;;;;;;;41.28;21.48;;;;;;;;;;4879434;29;20534;-71
2023/01/12 13:18:48;;;;;;;42.65;23.60;;;;;;;;;;4878686;29;20045;-73
2023/01/12 13:21:26;;;;;;;40.63;23.17;;;;;;;;;;4863925;29;20116;-73
2023/01/12 13:23:53;;;;;;;39.55;22.55;;;;;;;;;;4864992;29;20378;-70
2023/01/12 13:26:38;;;;;;;41.30;23.40;;;;;;;;;;4879373;29;20449;-70
2023/01/12 13:29:23;;;;;;;46.60;25.02;;;;;;;;;;4903300;29;20480;-69
2023/01/12 13:31:51;;;;;;;45.15;23.55;;;;;;;;;;4876008;29;20064;-66
2023/01/12 13:34:35;;;;;;;46.45;25.13;;;;;;;;;;4874876;29;20081;-68
2023/01/12 13:37:21;;;;;;;45.38;24.65;;;;;;;;;;4867183;29;20087;-70
2023/01/12 13:40:06;;;;;;;45.75;24.60;;;;;;;;;;4915169;29;20111;-69
2023/01/12 13:45:19;;;;;;;43.90;23.83;;;;;;;;;;4916369;29;20119;-65
2023/01/12 13:47:46;;;;;;;41.90;23.60;;;;;;;;;;4916037;29;20032;-67
2023/01/12 13:50:17;;;;;;;42.15;23.77;;;;;;;;;;4916578;29;20400;-61
2023/01/12 13:52:43;;;;;;;41.90;23.40;;;;;;;;;;4916597;29;20055;-64
2023/01/12 13:55:19;;;;;;;38.80;21.98;;;;;;;;;;4914564;29;20114;-67
2023/01/12 13:57:55;;;;;;;38.25;22.08;;;;;;;;;;4916273;29;20080;-63
2023/01/12 14:00:22;;;;;;;39.20;21.52;;;;;;;;;;4916315;29;20056;-62
2023/01/12 14:02:48;;;;;;;40.67;20.75;;;;;;;;;;4915407;29;20035;-63
2023/01/12 14:05:21;;;;;;;42.75;23.23;;;;;;;;;;4915980;29;20132;-68
2023/01/12 14:07:54;;;;;;;40.45;22.55;;;;;;;;;;4912891;29;20555;-65
2023/01/12 14:10:29;;;;;;;40.15;23.52;;;;;;;;;;4915099;29;20370;-65
2023/01/12 14:13:04;;;;;;;38.15;22.00;;;;;;;;;;4916177;29;20488;-67
2023/01/12 14:18:22;;;;;;;40.65;24.23;;;;;;;;;;4914792;29;20096;-65
2023/01/12 14:20:58;;;;;;;45.40;24.80;;;;;;;;;;4913249;29;20116;-64
2023/01/12 14:23:24;;;;;;;42.65;25.30;;;;;;;;;;4915160;29;20047;-64
2023/01/12 14:26:05;;;;;;;42.90;23.52;;;;;;;;;;4915458;29;20412;-65
2023/01/12 14:28:32;;;;;;;41.78;23.52;;;;;;;;;;4914989;29;20048;-64
2023/01/12 14:30:58;;;;;;;43.78;24.58;;;;;;;;;;4921216;29;20074;-68
2023/01/12 14:33:26;;;;;;;47.70;26.63;;;;;;;;;;4947708;29;20054;-67
2023/01/12 14:35:54;;;;;;;45.03;25.20;;;;;;;;;;4937848;29;20031;-67
2023/01/12 14:38:22;;;;;;;44.22;24.48;;;;;;;;;;4940519;29;20533;-62
2023/01/12 14:46:23;;;;;;;42.15;23.40;;;;;;;;;;4945224;29;20038;-63
2023/01/12 14:46:46;;;;;;;45.90;24.48;;;;;;;;;;4935142;29;20082;-69
2023/01/12 14:49:32;;;;;;;48.42;27.75;;;;;;;;;;4934876;29;20047;-68
2023/01/12 14:52:21;;;;;;;42.88;24.65;;;;;;;;;;4948831;29;20070;-61
2023/01/12 14:54:48;;;;;;;40.35;24.33;;;;;;;;;;4854955;29;20037;-69
2023/01/12 14:57:32;;;;;;;44.40;24.20;;;;;;;;;;4857330;29;20041;-65
2023/01/12 14:59:59;;;;;;;44.08;23.98;;;;;;;;;;4857526;29;20053;-67
2023/01/12 15:02:45;;;;;;;41.78;24.48;;;;;;;;;;4856804;29;20093;-71
2023/01/12 15:05:24;;;;;;;39.10;23.48;;;;;;;;;;4855699;29;20045;-64
2023/01/12 15:08:08;;;;;;;44.20;25.00;;;;;;;;;;4856821;29;20090;-73
2023/01/12 15:10:35;;;;;;;46.38;26.25;;;;;;;;;;4847618;29;20041;-75
2023/01/12 15:13:20;;;;;;;40.25;24.27;;;;;;;;;;4838450;29;20064;-60
2023/01/12 15:26:45;;;;;;;50.85;27.80;;;;;;;;;;4854572;29;20168;-68
2023/01/12 15:29:11;;;;;;;53.17;30.80;;;;;;;;;;4855251;29;20563;-65
2023/01/12 15:31:38;;;;;;;58.78;30.98;;;;;;;;;;4879245;29;20408;-67
2023/01/12 15:34:04;;;;;;;54.42;30.83;;;;;;;;;;4909452;29;20043;-69
2023/01/12 15:36:30;;;;;;;55.15;30.13;;;;;;;;;;4906759;29;20260;-68
2023/01/12 15:38:57;;;;;;;57.95;30.95;;;;;;;;;;4905480;29;20032;-69
2023/01/12 15:44:11;;;;;;;56.45;32.03;;;;;;;;;;4915122;29;20111;-68
2023/01/12 15:46:37;;;;;;;50.38;29.23;;;;;;;;;;4914969;29;20067;-61
2023/01/12 15:49:04;;;;;;;50.10;28.83;;;;;;;;;;4914304;29;20040;-62
2023/01/12 15:51:30;;;;;;;57.80;28.33;;;;;;;;;;4903427;29;20080;-68
2023/01/12 15:53:56;;;;;;;51.20;27.77;;;;;;;;;;4904903;29;20047;-67
2023/01/12 15:56:23;;;;;;;52.92;28.08;;;;;;;;;;4903706;29;20061;-62
2023/01/12 15:58:49;;;;;;;48.75;27.55;;;;;;;;;;4903200;29;20079;-66
2023/01/12 16:01:16;;;;;;;49.75;28.52;;;;;;;;;;4904824;29;20103;-62
2023/01/12 16:03:42;;;;;;;44.45;27.25;;;;;;;;;;4903053;29;20540;-68
2023/01/12 16:06:08;;;;;;;44.78;27.13;;;;;;;;;;4903861;29;20035;-63
2023/01/12 16:08:34;;;;;;;46.00;26.15;;;;;;;;;;4906032;29;20047;-68
2023/01/12 16:11:12;;;;;;;44.47;26.23;;;;;;;;;;4914768;29;20024;-66
2023/01/12 16:13:38;;;;;;;45.70;26.67;;;;;;;;;;4911094;29;20027;-63
2023/01/12 16:16:05;;;;;;;49.03;28.02;;;;;;;;;;4906890;29;20493;-65
2023/01/12 16:18:31;;;;;;;49.58;27.38;;;;;;;;;;4907213;29;20182;-63
2023/01/12 16:21:01;;;;;;;46.25;27.13;;;;;;;;;;4907972;29;20034;-64
2023/01/12 16:23:27;;;;;;;49.90;29.27;;;;;;;;;;4907700;29;20024;-64
2023/01/12 16:25:57;;;;;;;50.13;30.13;;;;;;;;;;4906962;29;20035;-63
2023/01/12 16:28:23;;;;;;;53.10;29.52;;;;;;;;;;4914598;29;20139;-66
2023/01/12 16:30:50;;;;;;;48.75;29.50;;;;;;;;;;4920649;29;20092;-61
2023/01/12 16:33:16;;;;;;;53.55;30.27;;;;;;;;;;4955129;29;20047;-64
2023/01/12 16:35:43;;;;;;;50.47;28.45;;;;;;;;;;4954612;29;20027;-62
2023/01/12 16:38:09;;;;;;;47.10;28.00;;;;;;;;;;4955019;29;20102;-64
2023/01/12 16:40:36;;;;;;;51.08;28.92;;;;;;;;;;4955590;29;20031;-64
2023/01/12 16:43:02;;;;;;;47.00;27.52;;;;;;;;;;4952621;29;20102;-64
2023/01/12 16:45:28;;;;;;;50.67;28.13;;;;;;;;;;4955392;29;20491;-62
2023/01/12 16:47:55;;;;;;;47.10;26.35;;;;;;;;;;4955693;29;20046;-68
2023/01/12 16:50:21;;;;;;;50.45;28.00;;;;;;;;;;4955464;29;20093;-63
2023/01/12 16:52:47;;;;;;;51.45;29.00;;;;;;;;;;4943032;29;20039;-63
2023/01/12 16:55:13;;;;;;;66.85;34.30;;;;;;;;;;4936787;29;20031;-63
2023/01/12 16:57:40;;;;;;;75.72;35.92;;;;;;;;;;4936604;29;20035;-63
2023/01/12 17:00:06;;;;;;;65.70;34.88;;;;;;;;;;4936401;29;20035;-66
2023/01/12 17:02:33;;;;;;;56.13;29.77;;;;;;;;;;4936157;29;20086;-62
2023/01/12 17:04:59;;;;;;;52.65;29.95;;;;;;;;;;4935959;29;20035;-64
2023/01/12 17:07:25;;;;;;;49.95;30.02;;;;;;;;;;4936045;29;20032;-64
2023/01/12 17:09:51;;;;;;;50.10;29.55;;;;;;;;;;4935835;29;20040;-65
2023/01/12 17:12:20;;;;;;;52.08;29.30;;;;;;;;;;4936514;29;20030;-68
2023/01/12 17:14:46;;;;;;;50.38;30.25;;;;;;;;;;4943103;29;20434;-63
2023/01/12 17:17:12;;;;;;;54.60;30.52;;;;;;;;;;4953836;29;20544;-64
2023/01/12 17:19:41;;;;;;;46.38;25.88;;;;;;;;;;4953335;28;20484;-68
2023/01/12 17:22:08;;;;;;;53.22;29.92;;;;;;;;;;4955045;29;20023;-70
2023/01/12 17:24:35;;;;;;;58.28;29.77;;;;;;;;;;4955091;29;20062;-71
2023/01/12 17:27:01;;;;;;;58.95;31.77;;;;;;;;;;4955228;29;20027;-64
2023/01/12 17:29:27;;;;;;;71.70;34.22;;;;;;;;;;4955019;29;20039;-64
2023/01/12 17:32:02;;;;;;;72.97;34.78;;;;;;;;;;4954493;28;20382;-64
2023/01/12 17:34:29;;;;;;;60.08;32.30;;;;;;;;;;4954303;29;20031;-68
2023/01/12 17:36:56;;;;;;;67.18;31.92;;;;;;;;;;4954611;29;20114;-64
2023/01/12 17:39:22;;;;;;;64.32;33.33;;;;;;;;;;4954649;29;20106;-65
2023/01/12 17:44:33;;;;;;;61.58;33.88;;;;;;;;;;4954485;29;20046;-65
2023/01/12 17:46:59;;;;;;;69.18;34.42;;;;;;;;;;4954228;29;20027;-71
2023/01/12 17:49:25;;;;;;;71.45;38.00;;;;;;;;;;4954268;29;20031;-65
2023/01/12 17:51:51;;;;;;;79.38;40.95;;;;;;;;;;4954565;29;20538;-66
2023/01/12 17:54:17;;;;;;;72.18;37.72;;;;;;;;;;4954551;29;20032;-64
2023/01/12 17:56:43;;;;;;;67.18;36.20;;;;;;;;;;4954587;29;20027;-67
2023/01/12 17:59:14;;;;;;;76.50;39.22;;;;;;;;;;4954451;29;20450;-68
2023/01/12 18:01:40;;;;;;;97.88;50.50;;;;;;;;;;4953990;29;20051;-67
2023/01/12 18:04:06;;;;;;;117.93;58.20;;;;;;;;;;4954221;29;20031;-64
2023/01/12 18:06:32;;;;;;;92.68;48.22;;;;;;;;;;4953772;29;20031;-65
2023/01/12 18:08:58;;;;;;;90.60;43.42;;;;;;;;;;4953945;29;20039;-64
2023/01/12 18:11:25;;;;;;;82.97;41.72;;;;;;;;;;4954171;29;20395;-64
2023/01/12 18:13:51;;;;;;;79.40;43.28;;;;;;;;;;4954387;29;20589;-68
2023/01/12 18:16:17;;;;;;;82.53;42.95;;;;;;;;;;4954112;29;20114;-70
2023/01/12 18:18:43;;;;;;;81.82;43.53;;;;;;;;;;4953758;29;20031;-70
2023/01/12 18:21:11;;;;;;;78.63;43.15;;;;;;;;;;4953886;29;20034;-64
2023/01/12 18:23:37;;;;;;;88.93;46.40;;;;;;;;;;4953981;29;20031;-63
2023/01/12 18:26:08;;;;;;;83.50;46.35;;;;;;;;;;4954047;29;20454;-64
2023/01/12 18:28:34;;;;;;;80.60;42.80;;;;;;;;;;4953655;29;20071;-69
2023/01/12 18:31:02;;;;;;;72.30;40.83;;;;;;;;;;4952816;28;20050;-71
2023/01/12 18:33:28;;;;;;;71.47;41.03;;;;;;;;;;4953737;29;20031;-70
2023/01/12 18:35:55;;;;;;;75.57;39.55;;;;;;;;;;4953934;29;20054;-63
2023/01/12 18:38:24;;;;;;;76.95;41.75;;;;;;;;;;4953538;29;20042;-63
2023/01/12 18:42:48;;;;;;;73.43;41.55;;;;;;;;;;4953727;29;20488;-66
2023/01/12 18:43:36;;;;;;;71.93;41.28;;;;;;;;;;4953445;29;20114;-68
2023/01/12 18:46:03;;;;;;;74.90;41.42;;;;;;;;;;4953219;29;20046;-65
2023/01/12 18:48:29;;;;;;;73.63;41.45;;;;;;;;;;4953426;29;20035;-63
2023/01/12 18:53:40;;;;;;;81.88;42.40;;;;;;;;;;4953073;29;20098;-70
2023/01/12 18:56:06;;;;;;;72.55;40.97;;;;;;;;;;4953058;29;20078;-68
2023/01/12 18:58:33;;;;;;;80.15;43.00;;;;;;;;;;4953255;29;20499;-64
2023/01/12 19:01:12;;;;;;;87.97;46.00;;;;;;;;;;4953363;29;20039;-67
2023/01/12 19:03:38;;;;;;;75.97;43.38;;;;;;;;;;4952867;29;20035;-65
2023/01/12 19:11:24;;;;;;;82.97;42.13;;;;;;;;;;4953050;29;20055;-64
2023/01/12 19:19:27;;;;;;;74.22;39.67;;;;;;;;;;4952839;29;20090;-65
2023/01/12 19:30:09;;;;;;;82.15;43.63;;;;;;;;;;4949013;28;20163;-65
2023/01/12 19:32:35;;;;;;;82.32;44.05;;;;;;;;;;4955296;29;20142;-63
2023/01/12 19:35:03;;;;;;;80.10;44.15;;;;;;;;;;4939075;29;20031;-69
2023/01/12 19:37:29;;;;;;;88.63;44.13;;;;;;;;;;4937242;29;20395;-71
2023/01/12 19:40:06;;;;;;;81.90;44.33;;;;;;;;;;4948331;29;20027;-71
2023/01/12 19:45:17;;;;;;;83.88;44.33;;;;;;;;;;4955026;29;20538;-70
2023/01/12 19:47:45;;;;;;;79.22;42.67;;;;;;;;;;4956953;29;20031;-77
2023/01/12 19:50:12;;;;;;;80.28;43.10;;;;;;;;;;4932405;29;20391;-70
2023/01/12 19:52:40;;;;;;;80.57;42.38;;;;;;;;;;4941642;29;20071;-72
2023/01/12 19:55:07;;;;;;;75.55;42.47;;;;;;;;;;4938296;29;20035;-71
2023/01/12 19:57:36;;;;;;;85.90;44.25;;;;;;;;;;4944362;29;20094;-70
2023/01/12 20:00:05;;;;;;;90.43;48.10;;;;;;;;;;4958690;29;20020;-70
2023/01/12 20:02:32;;;;;;;95.38;50.13;;;;;;;;;;4939122;29;20043;-73
2023/01/12 20:05:03;;;;;;;84.65;45.40;;;;;;;;;;4925979;29;20419;-71
2023/01/12 20:07:30;;;;;;;86.97;44.72;;;;;;;;;;4929386;29;20039;-71
2023/01/12 20:10:00;;;;;;;84.25;44.10;;;;;;;;;;4950056;29;20121;-73
2023/01/12 20:12:27;;;;;;;83.28;42.40;;;;;;;;;;4945848;29;20023;-72
2023/01/12 20:14:53;;;;;;;77.10;42.22;;;;;;;;;;4939055;29;20028;-73
2023/01/12 20:17:20;;;;;;;74.95;40.78;;;;;;;;;;4937486;29;20086;-71
2023/01/12 20:19:47;;;;;;;79.47;41.85;;;;;;;;;;4921497;29;20483;-73
2023/01/12 20:22:14;;;;;;;83.60;44.08;;;;;;;;;;4933634;29;20024;-71
2023/01/12 20:24:40;;;;;;;147.27;67.15;;;;;;;;;;4943210;28;20158;-73
2023/01/12 20:27:06;;;;;;;130.82;64.88;;;;;;;;;;4945674;28;20030;-73
2023/01/12 20:29:32;;;;;;;96.68;51.47;;;;;;;;;;4934525;29;20122;-69
2023/01/12 20:32:00;;;;;;;117.97;56.67;;;;;;;;;;4941682;28;20075;-74
2023/01/12 20:34:26;;;;;;;113.82;53.92;;;;;;;;;;4953283;28;20360;-70
2023/01/12 20:36:52;;;;;;;86.75;46.08;;;;;;;;;;4970780;28;20026;-70
2023/01/12 20:39:18;;;;;;;100.10;50.83;;;;;;;;;;4971303;28;20102;-70
2023/01/12 20:41:44;;;;;;;100.15;52.13;;;;;;;;;;4972846;28;20438;-69
2023/01/12 20:44:15;;;;;;;98.45;52.42;;;;;;;;;;4968957;28;20073;-71
2023/01/12 20:46:41;;;;;;;106.78;55.50;;;;;;;;;;4977931;28;20062;-71
2023/01/12 20:49:08;;;;;;;131.15;64.57;;;;;;;;;;4975735;28;20027;-72
2023/01/12 20:51:34;;;;;;;186.70;87.97;;;;;;;;;;4957022;28;20033;-71
2023/01/12 20:54:01;;;;;;;215.82;95.82;;;;;;;;;;4953993;28;20022;-70
2023/01/12 20:56:27;;;;;;;214.10;95.93;;;;;;;;;;4974421;28;20027;-72
2023/01/12 20:58:53;;;;;;;186.70;85.65;;;;;;;;;;4974087;28;20509;-70
2023/01/12 21:01:19;;;;;;;146.68;67.97;;;;;;;;;;4957565;28;20038;-71
2023/01/12 21:03:45;;;;;;;105.40;53.28;;;;;;;;;;4935691;29;20032;-70
2023/01/12 21:06:15;;;;;;;93.93;48.15;;;;;;;;;;4935097;29;20499;-70
2023/01/12 21:08:42;;;;;;;90.60;45.35;;;;;;;;;;4940908;29;20535;-71
2023/01/12 21:11:09;;;;;;;114.28;54.88;;;;;;;;;;4955165;29;20023;-70
2023/01/12 21:13:35;;;;;;;112.25;56.45;;;;;;;;;;4953605;29;20034;-70